Time;durP1;ratioP1;P1;durP2;ratioP2;P2;SDS_P1;SDS_P2;PMS_P1;PMS_P2;Temp;Humidity;BMP_temperature;BMP_pressure;BME280_temperature;BME280_humidity;BME280_pressure;Samples;Min_cycle;Max_cycle;Signal;HPM_P1;HPM_P2
2022/09/24 00:01:55;;;;;;;;;;;21.10;41.60;;;;;;485796;245;1152;-50
2022/09/24 00:03:56;;;;;;;;;;;21.10;41.60;;;;;;485788;245;2154;-50
2022/09/24 00:05:57;;;;;;;;;;;21.10;41.60;;;;;;485551;245;1056;-51
2022/09/24 00:07:59;;;;;;;;;;;21.10;41.70;;;;;;485367;245;1158;-51
2022/09/24 00:10:01;;;;;;;;;;;21.10;41.70;;;;;;485777;245;1303;-51
2022/09/24 00:12:01;;;;;;;;;;;21.10;41.70;;;;;;485542;246;1527;-51
2022/09/24 00:14:03;;;;;;;;;;;21.10;41.70;;;;;;485307;245;1242;-51
2022/09/24 00:16:04;;;;;;;;;;;21.00;41.70;;;;;;485503;245;1334;-51
2022/09/24 00:18:06;;;;;;;;;;;21.10;41.70;;;;;;485794;245;1325;-50
2022/09/24 00:20:07;;;;;;;;;;;21.00;41.80;;;;;;485725;246;2172;-50
2022/09/24 00:22:08;;;;;;;;;;;21.10;41.80;;;;;;485789;245;1329;-50
2022/09/24 00:24:09;;;;;;;;;;;21.10;41.80;;;;;;485613;245;2143;-50
2022/09/24 00:28:30;;;;;;;;;;;21.00;41.70;;;;;;485710;246;1269;-50
2022/09/24 00:30:32;;;;;;;;;;;21.00;41.70;;;;;;485632;245;1245;-51
2022/09/24 00:32:33;;;;;;;;;;;21.00;41.80;;;;;;485581;245;1136;-50
2022/09/24 00:34:34;;;;;;;;;;;21.10;41.80;;;;;;485373;245;1080;-50
2022/09/24 00:36:36;;;;;;;;;;;21.10;41.80;;;;;;485817;245;1118;-50
2022/09/24 00:38:37;;;;;;;;;;;21.10;41.80;;;;;;485807;245;1141;-51
2022/09/24 00:40:38;;;;;;;;;;;21.00;41.80;;;;;;485760;245;1224;-51
2022/09/24 00:42:40;;;;;;;;;;;21.10;41.80;;;;;;485362;245;1245;-50
2022/09/24 00:44:41;;;;;;;;;;;21.10;41.80;;;;;;485312;245;2195;-51
2022/09/24 00:46:42;;;;;;;;;;;21.10;41.80;;;;;;485338;245;1234;-50
2022/09/24 00:48:44;;;;;;;;;;;21.10;41.80;;;;;;485807;245;1019;-50
2022/09/24 00:50:45;;;;;;;;;;;21.10;41.80;;;;;;485757;245;1210;-51
2022/09/24 00:52:46;;;;;;;;;;;21.10;41.80;;;;;;485790;245;1385;-51
2022/09/24 00:54:48;;;;;;;;;;;21.10;41.90;;;;;;485793;245;1072;-51
2022/09/24 00:56:49;;;;;;;;;;;21.00;41.90;;;;;;485299;246;2265;-51
2022/09/24 00:58:51;;;;;;;;;;;21.10;41.90;;;;;;485571;245;1205;-51
2022/09/24 01:00:52;;;;;;;;;;;21.10;41.90;;;;;;485660;245;1254;-51
2022/09/24 01:02:53;;;;;;;;;;;21.10;41.90;;;;;;485343;245;2176;-50
2022/09/24 01:04:54;;;;;;;;;;;21.00;41.90;;;;;;485795;245;1262;-51
2022/09/24 01:06:56;;;;;;;;;;;21.10;41.90;;;;;;485783;245;1291;-50
2022/09/24 01:08:57;;;;;;;;;;;21.10;41.90;;;;;;485732;245;1375;-50
2022/09/24 01:10:58;;;;;;;;;;;21.10;41.90;;;;;;485793;245;1289;-50
2022/09/24 01:13:00;;;;;;;;;;;21.10;41.90;;;;;;485797;245;1282;-51
2022/09/24 01:15:01;;;;;;;;;;;21.10;41.90;;;;;;485426;245;1382;-51
2022/09/24 01:17:02;;;;;;;;;;;21.10;41.90;;;;;;485312;245;1241;-50
2022/09/24 01:19:04;;;;;;;;;;;21.00;41.90;;;;;;485785;245;1311;-51
2022/09/24 01:21:05;;;;;;;;;;;21.10;41.90;;;;;;485781;245;1297;-51
2022/09/24 01:23:07;;;;;;;;;;;21.10;41.90;;;;;;485301;245;2176;-51
2022/09/24 01:25:08;;;;;;;;;;;21.10;41.90;;;;;;485774;245;1251;-51
2022/09/24 01:27:09;;;;;;;;;;;21.10;41.90;;;;;;485463;245;1295;-51
2022/09/24 01:29:10;;;;;;;;;;;21.10;41.90;;;;;;485787;245;1109;-51
2022/09/24 01:31:13;;;;;;;;;;;21.10;41.90;;;;;;485352;245;1379;-50
2022/09/24 01:33:14;;;;;;;;;;;21.10;42.00;;;;;;485331;245;1821;-50
2022/09/24 01:35:15;;;;;;;;;;;21.10;41.90;;;;;;485794;245;1251;-51
2022/09/24 01:37:17;;;;;;;;;;;21.10;41.90;;;;;;485790;245;1361;-50
2022/09/24 01:39:18;;;;;;;;;;;21.00;41.90;;;;;;485284;245;1379;-51
2022/09/24 01:41:19;;;;;;;;;;;21.10;41.90;;;;;;485743;245;1351;-51
2022/09/24 01:43:21;;;;;;;;;;;21.10;41.90;;;;;;485583;245;2155;-50
2022/09/24 01:45:22;;;;;;;;;;;21.10;41.90;;;;;;485718;245;1216;-50
2022/09/24 01:47:25;;;;;;;;;;;21.10;41.90;;;;;;485310;245;1230;-51
2022/09/24 01:49:25;;;;;;;;;;;21.10;42.00;;;;;;485496;245;2368;-51
2022/09/24 01:51:26;;;;;;;;;;;21.10;42.00;;;;;;485754;245;1277;-51
2022/09/24 01:53:28;;;;;;;;;;;21.10;41.90;;;;;;485797;245;1263;-52
2022/09/24 01:55:29;;;;;;;;;;;21.10;41.90;;;;;;485804;245;1312;-52
2022/09/24 01:57:30;;;;;;;;;;;21.10;42.00;;;;;;485859;245;1083;-51
2022/09/24 01:59:32;;;;;;;;;;;21.10;42.00;;;;;;485381;245;1099;-50
2022/09/24 02:01:33;;;;;;;;;;;21.10;42.00;;;;;;485737;245;1253;-51
2022/09/24 02:03:35;;;;;;;;;;;21.00;42.00;;;;;;485806;245;2159;-50
2022/09/24 02:05:35;;;;;;;;;;;21.10;42.00;;;;;;485366;245;1502;-51
2022/09/24 02:07:38;;;;;;;;;;;21.10;42.00;;;;;;485761;245;1397;-51
2022/09/24 02:09:38;;;;;;;;;;;21.10;42.00;;;;;;485450;246;2350;-51
2022/09/24 02:11:40;;;;;;;;;;;21.10;42.00;;;;;;485507;245;1327;-50
2022/09/24 02:13:41;;;;;;;;;;;21.00;42.00;;;;;;485748;245;1444;-51
2022/09/24 02:15:42;;;;;;;;;;;21.00;42.00;;;;;;485341;245;1345;-50
2022/09/24 02:17:43;;;;;;;;;;;21.10;42.10;;;;;;485501;245;1204;-51
2022/09/24 02:19:45;;;;;;;;;;;21.10;42.10;;;;;;485798;245;1327;-50
2022/09/24 02:21:46;;;;;;;;;;;21.10;42.10;;;;;;485814;245;1182;-50
2022/09/24 02:23:47;;;;;;;;;;;21.00;42.10;;;;;;485567;245;2203;-51
2022/09/24 02:25:49;;;;;;;;;;;21.10;42.10;;;;;;485806;245;1318;-50
2022/09/24 02:27:50;;;;;;;;;;;21.10;42.10;;;;;;485370;245;1259;-50
2022/09/24 02:29:51;;;;;;;;;;;21.10;42.10;;;;;;485347;245;1191;-50
2022/09/24 02:31:53;;;;;;;;;;;21.10;42.10;;;;;;485528;245;1228;-50
2022/09/24 02:36:13;;;;;;;;;;;21.10;42.10;;;;;;485782;246;1222;-51
2022/09/24 02:38:15;;;;;;;;;;;21.10;42.10;;;;;;485453;245;1260;-50
2022/09/24 02:40:16;;;;;;;;;;;21.00;42.10;;;;;;485782;245;1357;-51
2022/09/24 02:42:17;;;;;;;;;;;21.10;42.10;;;;;;485335;245;1439;-50
2022/09/24 02:44:18;;;;;;;;;;;21.10;42.10;;;;;;485607;245;2151;-51
2022/09/24 02:46:20;;;;;;;;;;;21.00;42.10;;;;;;485356;245;1347;-51
2022/09/24 02:48:21;;;;;;;;;;;21.00;42.10;;;;;;485405;245;1312;-51
2022/09/24 02:50:23;;;;;;;;;;;21.00;42.20;;;;;;485772;245;1312;-51
2022/09/24 02:52:24;;;;;;;;;;;21.00;42.20;;;;;;485793;245;1339;-50
2022/09/24 02:54:25;;;;;;;;;;;21.10;42.20;;;;;;485423;245;1352;-51
2022/09/24 02:56:26;;;;;;;;;;;21.00;42.20;;;;;;485789;245;1214;-50
2022/09/24 02:58:28;;;;;;;;;;;21.10;42.20;;;;;;485747;245;1332;-51
2022/09/24 03:00:29;;;;;;;;;;;21.10;42.20;;;;;;485386;245;1286;-51
2022/09/24 03:02:30;;;;;;;;;;;21.00;42.10;;;;;;485528;245;1321;-50
2022/09/24 03:04:32;;;;;;;;;;;21.00;42.10;;;;;;485364;245;2195;-50
2022/09/24 03:06:33;;;;;;;;;;;21.00;42.10;;;;;;485733;245;1432;-50
2022/09/24 03:08:35;;;;;;;;;;;21.00;42.20;;;;;;485786;245;1411;-51
2022/09/24 03:10:36;;;;;;;;;;;21.00;42.10;;;;;;485802;245;1386;-51
2022/09/24 03:12:37;;;;;;;;;;;21.00;42.20;;;;;;485814;245;1356;-51
2022/09/24 03:14:38;;;;;;;;;;;21.00;42.20;;;;;;485782;245;1363;-51
2022/09/24 03:16:40;;;;;;;;;;;21.00;42.20;;;;;;485809;245;1263;-51
2022/09/24 03:18:41;;;;;;;;;;;21.00;42.20;;;;;;485477;245;1311;-51
2022/09/24 03:20:42;;;;;;;;;;;21.10;42.20;;;;;;485786;245;1218;-51
2022/09/24 03:22:44;;;;;;;;;;;21.10;42.20;;;;;;485791;245;1316;-51
2022/09/24 03:24:45;;;;;;;;;;;21.10;42.20;;;;;;485591;245;2163;-51
2022/09/24 03:26:46;;;;;;;;;;;21.10;42.20;;;;;;485607;245;1379;-50
2022/09/24 03:28:48;;;;;;;;;;;21.10;42.20;;;;;;485487;245;1271;-50
2022/09/24 03:31:01;;;;;;;;;;;21.10;42.20;;;;;;485779;245;1210;-51
2022/09/24 03:33:03;;;;;;;;;;;21.10;42.20;;;;;;485642;245;1219;-51
2022/09/24 03:35:04;;;;;;;;;;;21.10;42.20;;;;;;485775;245;1260;-51
2022/09/24 03:37:05;;;;;;;;;;;21.10;42.20;;;;;;485350;245;1290;-51
2022/09/24 03:39:07;;;;;;;;;;;21.10;42.20;;;;;;485756;245;1333;-50
2022/09/24 03:41:08;;;;;;;;;;;21.10;42.30;;;;;;485363;245;1345;-51
2022/09/24 03:43:09;;;;;;;;;;;21.00;42.20;;;;;;485358;245;1283;-51
2022/09/24 03:45:11;;;;;;;;;;;21.10;42.30;;;;;;485688;245;2168;-50
2022/09/24 03:47:12;;;;;;;;;;;21.10;42.30;;;;;;485609;245;1307;-50
2022/09/24 03:49:13;;;;;;;;;;;21.10;42.30;;;;;;485429;245;1231;-50
2022/09/24 03:51:15;;;;;;;;;;;21.00;42.30;;;;;;485786;245;1392;-50
2022/09/24 03:53:16;;;;;;;;;;;21.00;42.30;;;;;;485523;245;1345;-51
2022/09/24 03:55:17;;;;;;;;;;;21.10;42.30;;;;;;485778;245;1210;-50
2022/09/24 03:57:19;;;;;;;;;;;21.10;42.30;;;;;;485338;245;1223;-52
2022/09/24 03:59:20;;;;;;;;;;;21.10;42.30;;;;;;485565;245;1289;-51
2022/09/24 04:01:21;;;;;;;;;;;21.10;42.30;;;;;;485317;245;1288;-50
2022/09/24 04:03:23;;;;;;;;;;;21.10;42.30;;;;;;485446;245;1234;-50
2022/09/24 04:05:24;;;;;;;;;;;21.00;42.30;;;;;;485785;245;2156;-51
2022/09/24 04:07:25;;;;;;;;;;;21.00;42.30;;;;;;485784;245;1307;-51
2022/09/24 04:09:26;;;;;;;;;;;21.00;42.30;;;;;;485793;245;1310;-51
2022/09/24 04:11:28;;;;;;;;;;;21.10;42.30;;;;;;485357;245;1297;-50
2022/09/24 04:13:29;;;;;;;;;;;21.10;42.30;;;;;;485770;245;1310;-51
2022/09/24 04:15:31;;;;;;;;;;;21.10;42.40;;;;;;485522;245;1243;-51
2022/09/24 04:17:32;;;;;;;;;;;21.10;42.30;;;;;;485331;245;1251;-50
2022/09/24 04:19:33;;;;;;;;;;;21.10;42.30;;;;;;485318;245;1407;-51
2022/09/24 04:21:34;;;;;;;;;;;21.10;42.30;;;;;;485743;245;1280;-51
2022/09/24 04:23:36;;;;;;;;;;;21.10;42.30;;;;;;485589;245;1406;-51
2022/09/24 04:25:39;;;;;;;;;;;21.10;42.30;;;;;;485770;245;2202;-51
2022/09/24 04:27:40;;;;;;;;;;;21.10;42.30;;;;;;485212;246;2418;-51
2022/09/24 04:29:40;;;;;;;;;;;21.10;42.30;;;;;;485224;246;1667;-51
2022/09/24 04:31:41;;;;;;;;;;;21.10;42.30;;;;;;485608;245;1261;-51
2022/09/24 04:33:42;;;;;;;;;;;21.10;42.30;;;;;;485659;245;1260;-51
2022/09/24 04:35:44;;;;;;;;;;;21.10;42.30;;;;;;485790;245;1256;-51
2022/09/24 04:37:45;;;;;;;;;;;21.10;42.30;;;;;;485355;245;1199;-50
2022/09/24 04:39:47;;;;;;;;;;;21.10;42.30;;;;;;485752;245;1134;-50
2022/09/24 04:41:48;;;;;;;;;;;21.10;42.30;;;;;;485366;245;1263;-50
2022/09/24 04:43:50;;;;;;;;;;;21.10;42.40;;;;;;485794;245;1053;-52
2022/09/24 04:45:51;;;;;;;;;;;21.00;42.40;;;;;;485781;245;2187;-51
2022/09/24 04:47:54;;;;;;;;;;;21.00;42.40;;;;;;485766;245;1349;-51
2022/09/24 04:49:53;;;;;;;;;;;21.00;42.40;;;;;;485187;246;2239;-51
2022/09/24 04:51:57;;;;;;;;;;;21.10;42.40;;;;;;485559;245;1270;-50
2022/09/24 04:53:57;;;;;;;;;;;21.10;42.40;;;;;;485249;246;1887;-51
2022/09/24 04:55:58;;;;;;;;;;;21.10;42.40;;;;;;485699;245;1418;-50
2022/09/24 04:57:59;;;;;;;;;;;21.10;42.40;;;;;;485463;246;2260;-50
2022/09/24 05:00:00;;;;;;;;;;;21.10;42.40;;;;;;485324;245;1238;-51
2022/09/24 05:02:02;;;;;;;;;;;21.10;42.40;;;;;;485350;245;1132;-50
2022/09/24 05:04:03;;;;;;;;;;;21.10;42.40;;;;;;485678;245;1257;-50
2022/09/24 05:06:04;;;;;;;;;;;21.00;42.30;;;;;;485756;245;2202;-51
2022/09/24 05:08:06;;;;;;;;;;;21.10;42.40;;;;;;485354;245;1380;-50
2022/09/24 05:10:07;;;;;;;;;;;21.10;42.40;;;;;;485349;245;1325;-51
2022/09/24 05:12:08;;;;;;;;;;;21.10;42.40;;;;;;485360;245;1378;-51
2022/09/24 05:14:10;;;;;;;;;;;21.10;42.40;;;;;;485732;245;1394;-50
2022/09/24 05:16:11;;;;;;;;;;;21.10;42.40;;;;;;485712;245;1274;-51
2022/09/24 05:18:12;;;;;;;;;;;21.10;42.50;;;;;;485589;245;1214;-50
2022/09/24 05:20:15;;;;;;;;;;;21.00;42.40;;;;;;485463;245;1342;-52
2022/09/24 05:22:15;;;;;;;;;;;21.10;42.50;;;;;;485276;246;2233;-49
2022/09/24 05:24:16;;;;;;;;;;;21.10;42.50;;;;;;485339;245;1242;-51
2022/09/24 05:28:38;;;;;;;;;;;21.10;42.50;;;;;;485763;246;1296;-51
2022/09/24 05:30:38;;;;;;;;;;;21.10;42.40;;;;;;485645;245;1560;-51
2022/09/24 05:32:39;;;;;;;;;;;21.10;42.50;;;;;;485281;245;1601;-50
2022/09/24 05:34:41;;;;;;;;;;;21.10;42.50;;;;;;485321;245;1342;-51
2022/09/24 05:36:42;;;;;;;;;;;21.10;42.50;;;;;;485118;245;2304;-51
2022/09/24 05:38:43;;;;;;;;;;;21.10;42.40;;;;;;485760;245;1269;-51
2022/09/24 05:40:48;;;;;;;;;;;21.10;42.50;;;;;;485265;245;1365;-51
2022/09/24 05:42:49;;;;;;;;;;;21.10;42.50;;;;;;485249;245;1318;-50
2022/09/24 05:44:50;;;;;;;;;;;21.00;42.50;;;;;;485731;245;2203;-51
2022/09/24 05:46:52;;;;;;;;;;;21.10;42.50;;;;;;485320;245;1568;-50
2022/09/24 05:48:53;;;;;;;;;;;21.10;42.50;;;;;;485785;245;1236;-51
2022/09/24 05:50:55;;;;;;;;;;;21.10;42.50;;;;;;485401;245;1248;-51
2022/09/24 05:52:56;;;;;;;;;;;21.10;42.50;;;;;;485351;245;1345;-50
2022/09/24 05:54:57;;;;;;;;;;;21.10;42.50;;;;;;485684;245;1293;-51
2022/09/24 05:56:58;;;;;;;;;;;21.10;42.50;;;;;;485380;245;1247;-51
2022/09/24 05:59:00;;;;;;;;;;;21.10;42.50;;;;;;485310;245;1294;-51
2022/09/24 06:01:01;;;;;;;;;;;21.10;42.50;;;;;;485434;245;1289;-50
2022/09/24 06:03:03;;;;;;;;;;;21.10;42.50;;;;;;485341;245;1198;-50
2022/09/24 06:05:04;;;;;;;;;;;21.10;42.50;;;;;;485602;245;2200;-51
2022/09/24 06:07:05;;;;;;;;;;;21.10;42.50;;;;;;485814;246;1261;-50
2022/09/24 06:09:08;;;;;;;;;;;21.00;42.50;;;;;;485740;245;1358;-50
2022/09/24 06:11:08;;;;;;;;;;;21.10;42.60;;;;;;485725;246;1462;-51
2022/09/24 06:13:10;;;;;;;;;;;21.10;42.60;;;;;;485823;245;1236;-50
2022/09/24 06:15:12;;;;;;;;;;;21.10;42.60;;;;;;485457;245;1220;-50
2022/09/24 06:17:12;;;;;;;;;;;21.10;42.60;;;;;;485498;246;2118;-50
2022/09/24 06:19:14;;;;;;;;;;;21.00;42.50;;;;;;485826;245;1303;-51
2022/09/24 06:21:16;;;;;;;;;;;21.00;42.50;;;;;;485452;245;1306;-51
2022/09/24 06:23:16;;;;;;;;;;;21.00;42.60;;;;;;485758;246;1404;-50
2022/09/24 06:25:17;;;;;;;;;;;21.00;42.60;;;;;;485819;245;2135;-50
2022/09/24 06:27:19;;;;;;;;;;;21.00;42.60;;;;;;485822;245;1211;-50
2022/09/24 06:29:20;;;;;;;;;;;21.10;42.60;;;;;;485762;245;1368;-51
2022/09/24 06:31:21;;;;;;;;;;;21.10;42.60;;;;;;485349;245;1209;-51
2022/09/24 06:33:23;;;;;;;;;;;21.10;42.60;;;;;;485797;245;1275;-50
2022/09/24 06:35:24;;;;;;;;;;;21.10;42.60;;;;;;485441;245;1276;-51
2022/09/24 06:37:26;;;;;;;;;;;21.10;42.50;;;;;;485811;245;1288;-52
2022/09/24 06:39:27;;;;;;;;;;;21.10;42.30;;;;;;485699;245;1232;-51
2022/09/24 06:41:28;;;;;;;;;;;21.10;42.30;;;;;;485353;245;1262;-50
2022/09/24 06:43:29;;;;;;;;;;;21.10;42.20;;;;;;485816;242;1331;-50
2022/09/24 06:45:31;;;;;;;;;;;21.10;42.10;;;;;;485350;245;2203;-50
2022/09/24 06:47:32;;;;;;;;;;;21.10;42.00;;;;;;485819;245;1269;-50
2022/09/24 06:49:33;;;;;;;;;;;21.10;42.10;;;;;;485521;245;1279;-50
2022/09/24 06:51:35;;;;;;;;;;;21.10;42.10;;;;;;485426;245;1283;-51
2022/09/24 06:53:36;;;;;;;;;;;21.10;42.00;;;;;;485431;245;1302;-50
2022/09/24 06:55:37;;;;;;;;;;;21.10;42.00;;;;;;485784;245;1266;-51
2022/09/24 06:57:39;;;;;;;;;;;21.20;41.90;;;;;;485711;245;1411;-51
2022/09/24 06:59:40;;;;;;;;;;;21.10;41.90;;;;;;485763;245;1287;-51
2022/09/24 07:01:41;;;;;;;;;;;21.10;41.80;;;;;;485448;245;1348;-51
2022/09/24 07:03:43;;;;;;;;;;;21.10;41.80;;;;;;485798;245;1223;-50
2022/09/24 07:05:44;;;;;;;;;;;21.10;41.70;;;;;;485626;245;2194;-50
2022/09/24 07:07:45;;;;;;;;;;;21.20;41.70;;;;;;485795;245;1308;-50
2022/09/24 07:09:47;;;;;;;;;;;21.20;41.60;;;;;;485807;245;1189;-51
2022/09/24 07:11:48;;;;;;;;;;;21.10;41.60;;;;;;485800;245;1206;-50
2022/09/24 07:13:49;;;;;;;;;;;21.20;41.60;;;;;;485549;245;1241;-51
2022/09/24 07:15:51;;;;;;;;;;;21.20;41.50;;;;;;485807;245;1286;-50
2022/09/24 07:17:52;;;;;;;;;;;21.20;41.40;;;;;;485816;245;1118;-51
2022/09/24 07:19:54;;;;;;;;;;;21.20;41.50;;;;;;485772;245;1090;-50
2022/09/24 07:21:55;;;;;;;;;;;21.20;41.40;;;;;;485474;245;1183;-51
2022/09/24 07:23:56;;;;;;;;;;;21.20;41.40;;;;;;485773;245;1348;-51
2022/09/24 07:25:58;;;;;;;;;;;21.20;41.40;;;;;;485344;245;2179;-51
2022/09/24 07:27:59;;;;;;;;;;;21.20;41.30;;;;;;485814;245;1066;-50
2022/09/24 07:30:00;;;;;;;;;;;21.20;41.30;;;;;;485535;245;1107;-51
2022/09/24 07:32:02;;;;;;;;;;;21.20;41.20;;;;;;485806;245;1054;-51
2022/09/24 07:34:03;;;;;;;;;;;21.20;41.20;;;;;;485441;245;1365;-51
2022/09/24 07:36:06;;;;;;;;;;;21.20;41.20;;;;;;485667;245;1210;-51
2022/09/24 07:38:06;;;;;;;;;;;21.20;41.10;;;;;;485773;245;1272;-51
2022/09/24 07:40:08;;;;;;;;;;;21.20;41.10;;;;;;485335;245;1386;-51
2022/09/24 07:42:10;;;;;;;;;;;21.20;41.10;;;;;;485314;246;2452;-50
2022/09/24 07:44:10;;;;;;;;;;;21.10;41.00;;;;;;485635;245;2343;-51
2022/09/24 07:46:12;;;;;;;;;;;21.20;41.10;;;;;;485783;245;2148;-50
2022/09/24 07:48:14;;;;;;;;;;;21.20;41.00;;;;;;485743;245;1275;-51
2022/09/24 07:50:15;;;;;;;;;;;21.20;41.00;;;;;;485281;246;2364;-50
2022/09/24 07:52:16;;;;;;;;;;;21.20;41.00;;;;;;485398;245;2619;-50
2022/09/24 07:54:17;;;;;;;;;;;21.20;40.90;;;;;;485791;245;1431;-51
2022/09/24 07:56:18;;;;;;;;;;;21.20;40.90;;;;;;485779;245;1289;-50
2022/09/24 07:58:20;;;;;;;;;;;21.20;40.80;;;;;;485681;245;1292;-51
2022/09/24 08:00:21;;;;;;;;;;;21.20;40.80;;;;;;485558;245;2259;-50
2022/09/24 08:02:23;;;;;;;;;;;21.20;40.80;;;;;;485804;245;1338;-51
2022/09/24 08:04:24;;;;;;;;;;;21.20;40.70;;;;;;485761;245;1437;-51
2022/09/24 08:06:25;;;;;;;;;;;21.20;40.70;;;;;;485682;245;2206;-50
2022/09/24 08:08:26;;;;;;;;;;;21.20;40.60;;;;;;485824;245;1301;-51
2022/09/24 08:10:28;;;;;;;;;;;21.20;40.70;;;;;;485793;245;1226;-50
2022/09/24 08:12:29;;;;;;;;;;;21.20;40.60;;;;;;485669;245;1373;-51
2022/09/24 08:14:30;;;;;;;;;;;21.20;40.60;;;;;;485742;245;1259;-51
2022/09/24 08:16:32;;;;;;;;;;;21.20;40.70;;;;;;485809;245;1323;-51
2022/09/24 08:18:33;;;;;;;;;;;21.20;40.70;;;;;;485616;245;1077;-50
2022/09/24 08:20:34;;;;;;;;;;;21.20;40.80;;;;;;485622;245;2103;-50
2022/09/24 08:22:36;;;;;;;;;;;21.20;40.70;;;;;;485474;245;1221;-50
2022/09/24 08:24:37;;;;;;;;;;;21.10;40.70;;;;;;485806;245;1092;-51
2022/09/24 08:26:38;;;;;;;;;;;21.20;40.70;;;;;;485353;245;2157;-51
2022/09/24 08:28:40;;;;;;;;;;;21.20;40.70;;;;;;485354;245;1224;-51
2022/09/24 08:30:41;;;;;;;;;;;21.20;40.60;;;;;;485686;245;1398;-51
2022/09/24 08:32:42;;;;;;;;;;;21.10;40.60;;;;;;485371;245;1184;-50
2022/09/24 08:34:44;;;;;;;;;;;21.20;40.60;;;;;;485805;245;1102;-51
2022/09/24 08:36:45;;;;;;;;;;;21.20;40.60;;;;;;485688;245;1286;-51
2022/09/24 08:38:46;;;;;;;;;;;21.20;40.60;;;;;;485717;245;1389;-51
2022/09/24 08:40:48;;;;;;;;;;;21.10;40.50;;;;;;485699;245;1311;-51
2022/09/24 08:42:49;;;;;;;;;;;21.20;40.60;;;;;;485738;245;1259;-50
2022/09/24 08:47:25;;;;;;;;;;;21.20;40.40;;;;;;485331;246;2156;-51
2022/09/24 08:49:26;;;;;;;;;;;21.10;40.40;;;;;;485762;245;1254;-51
2022/09/24 08:51:27;;;;;;;;;;;21.20;40.40;;;;;;485745;245;1242;-50
2022/09/24 08:53:30;;;;;;;;;;;21.20;40.30;;;;;;485301;245;1272;-51
2022/09/24 08:55:32;;;;;;;;;;;21.20;40.30;;;;;;485253;246;2732;-51
2022/09/24 08:57:32;;;;;;;;;;;21.20;40.30;;;;;;485606;245;1438;-50
2022/09/24 08:59:36;;;;;;;;;;;21.20;40.30;;;;;;485330;245;1420;-50
2022/09/24 09:01:34;;;;;;;;;;;21.10;40.20;;;;;;485554;246;1511;-51
2022/09/24 09:03:36;;;;;;;;;;;21.20;40.30;;;;;;485785;245;1268;-51
2022/09/24 09:05:37;;;;;;;;;;;21.20;40.30;;;;;;485546;245;1190;-51
2022/09/24 09:07:38;;;;;;;;;;;21.10;40.20;;;;;;485273;245;2137;-50
2022/09/24 09:09:40;;;;;;;;;;;21.20;40.20;;;;;;485612;245;1258;-51
2022/09/24 09:11:41;;;;;;;;;;;21.20;40.10;;;;;;485774;245;1264;-51
2022/09/24 09:13:42;;;;;;;;;;;21.20;40.20;;;;;;485360;245;1296;-50
2022/09/24 09:15:43;;;;;;;;;;;21.20;40.20;;;;;;485758;245;1366;-50
2022/09/24 09:17:45;;;;;;;;;;;21.10;40.10;;;;;;485779;245;1234;-51
2022/09/24 09:19:46;;;;;;;;;;;21.20;40.10;;;;;;485617;245;1313;-51
2022/09/24 09:21:51;;;;;;;;;;;21.20;40.10;;;;;;485790;245;1212;-50
2022/09/24 09:23:49;;;;;;;;;;;21.20;40.10;;;;;;485104;246;1511;-50
2022/09/24 09:25:51;;;;;;;;;;;21.20;40.00;;;;;;485763;245;1295;-51
2022/09/24 09:27:51;;;;;;;;;;;21.20;40.10;;;;;;485266;246;1356;-50
2022/09/24 09:29:53;;;;;;;;;;;21.20;40.10;;;;;;485271;245;1322;-51
2022/09/24 09:31:54;;;;;;;;;;;21.20;40.20;;;;;;485511;245;1335;-51
2022/09/24 09:33:58;;;;;;;;;;;21.20;40.10;;;;;;485280;245;1396;-51
2022/09/24 09:35:57;;;;;;;;;;;21.20;40.20;;;;;;485554;246;2275;-51
2022/09/24 09:37:58;;;;;;;;;;;21.20;40.10;;;;;;485584;245;1282;-51
2022/09/24 09:40:00;;;;;;;;;;;21.20;40.10;;;;;;485330;245;1314;-51
2022/09/24 09:42:02;;;;;;;;;;;21.20;40.00;;;;;;485333;245;1644;-51
2022/09/24 09:44:03;;;;;;;;;;;21.10;40.00;;;;;;485761;245;1285;-51
2022/09/24 09:46:06;;;;;;;;;;;21.20;40.00;;;;;;485347;245;2157;-50
2022/09/24 09:48:05;;;;;;;;;;;21.20;40.00;;;;;;485240;245;1313;-50
2022/09/24 09:50:07;;;;;;;;;;;21.20;40.00;;;;;;485393;245;1174;-51
2022/09/24 09:52:08;;;;;;;;;;;21.20;39.90;;;;;;485790;245;1197;-51
2022/09/24 09:54:10;;;;;;;;;;;21.20;39.80;;;;;;485380;245;1099;-51
2022/09/24 09:56:11;;;;;;;;;;;21.20;39.80;;;;;;485783;245;1201;-51
2022/09/24 09:58:12;;;;;;;;;;;21.20;39.90;;;;;;485323;246;2279;-50
2022/09/24 10:00:14;;;;;;;;;;;21.20;39.90;;;;;;485735;245;1196;-51
2022/09/24 10:02:15;;;;;;;;;;;21.20;39.80;;;;;;485332;245;1185;-50
2022/09/24 10:04:16;;;;;;;;;;;21.20;39.90;;;;;;485767;245;1134;-51
2022/09/24 10:06:18;;;;;;;;;;;21.20;39.80;;;;;;485744;245;2147;-50
2022/09/24 10:08:19;;;;;;;;;;;21.20;39.80;;;;;;485525;245;1182;-51
2022/09/24 10:10:22;;;;;;;;;;;21.20;39.70;;;;;;485755;245;1217;-51
2022/09/24 10:12:23;;;;;;;;;;;21.20;39.70;;;;;;485241;245;2494;-50
2022/09/24 10:14:25;;;;;;;;;;;21.20;39.70;;;;;;485706;246;2145;-51
2022/09/24 10:16:24;;;;;;;;;;;21.20;39.70;;;;;;485420;246;1378;-51
2022/09/24 10:18:26;;;;;;;;;;;21.20;39.70;;;;;;485540;245;1292;-51
2022/09/24 10:20:27;;;;;;;;;;;21.20;39.70;;;;;;485749;245;2654;-51
2022/09/24 10:22:28;;;;;;;;;;;21.20;39.70;;;;;;485775;245;1194;-50
2022/09/24 10:24:29;;;;;;;;;;;21.20;39.70;;;;;;485367;245;1433;-51
2022/09/24 10:26:31;;;;;;;;;;;21.20;39.70;;;;;;485274;245;2160;-50
2022/09/24 10:30:52;;;;;;;;;;;21.20;39.60;;;;;;485754;246;1342;-50
2022/09/24 10:32:53;;;;;;;;;;;21.20;39.60;;;;;;485653;245;1273;-50
2022/09/24 10:34:55;;;;;;;;;;;21.20;39.50;;;;;;485640;245;1275;-50
2022/09/24 10:36:56;;;;;;;;;;;21.20;39.50;;;;;;485309;245;1252;-51
2022/09/24 10:38:57;;;;;;;;;;;21.20;39.60;;;;;;485570;245;1344;-51
2022/09/24 10:41:00;;;;;;;;;;;21.20;39.60;;;;;;485782;245;1269;-50
2022/09/24 10:43:00;;;;;;;;;;;21.20;39.50;;;;;;485732;246;2303;-50
2022/09/24 10:45:02;;;;;;;;;;;21.20;39.60;;;;;;485790;245;1308;-50
2022/09/24 10:47:03;;;;;;;;;;;21.20;39.70;;;;;;485798;245;2151;-50
2022/09/24 10:49:05;;;;;;;;;;;21.20;39.70;;;;;;485391;245;1252;-51
2022/09/24 10:51:06;;;;;;;;;;;21.20;39.80;;;;;;485767;245;1147;-51
2022/09/24 10:53:08;;;;;;;;;;;21.20;39.70;;;;;;485348;245;1319;-51
2022/09/24 10:55:09;;;;;;;;;;;21.20;39.60;;;;;;485327;245;1240;-51
2022/09/24 10:57:11;;;;;;;;;;;21.20;39.60;;;;;;485485;245;1361;-50
2022/09/24 10:59:12;;;;;;;;;;;21.20;39.60;;;;;;485618;245;1266;-51
2022/09/24 11:01:13;;;;;;;;;;;21.20;39.60;;;;;;485552;245;1295;-50
2022/09/24 11:03:14;;;;;;;;;;;21.20;39.50;;;;;;485360;245;1295;-50
2022/09/24 11:05:16;;;;;;;;;;;21.20;39.50;;;;;;485577;245;1253;-50
2022/09/24 11:07:17;;;;;;;;;;;21.20;39.50;;;;;;485760;245;2147;-50
2022/09/24 11:09:18;;;;;;;;;;;21.20;39.60;;;;;;485570;245;1371;-50
2022/09/24 11:11:20;;;;;;;;;;;21.20;39.50;;;;;;485802;245;1238;-50
2022/09/24 11:13:22;;;;;;;;;;;21.20;39.50;;;;;;485800;245;1811;-51
2022/09/24 11:15:22;;;;;;;;;;;21.20;39.50;;;;;;485302;245;1400;-50
2022/09/24 11:17:25;;;;;;;;;;;21.20;39.50;;;;;;485751;245;1334;-51
2022/09/24 11:19:25;;;;;;;;;;;21.20;39.60;;;;;;485733;245;1420;-51
2022/09/24 11:21:26;;;;;;;;;;;21.20;39.80;;;;;;485775;245;1279;-51
2022/09/24 11:23:28;;;;;;;;;;;21.20;40.00;;;;;;485392;245;1256;-50
2022/09/24 11:25:29;;;;;;;;;;;21.10;40.00;;;;;;485334;245;1311;-50
2022/09/24 11:27:30;;;;;;;;;;;21.10;40.20;;;;;;485337;245;2207;-50
2022/09/24 11:29:32;;;;;;;;;;;21.10;40.20;;;;;;485786;245;1315;-51
2022/09/24 11:31:33;;;;;;;;;;;21.10;40.30;;;;;;485463;245;1278;-50
2022/09/24 11:33:35;;;;;;;;;;;21.10;40.30;;;;;;485307;245;1306;-50
2022/09/24 11:35:36;;;;;;;;;;;21.10;40.40;;;;;;485310;245;1240;-50
2022/09/24 11:37:38;;;;;;;;;;;21.10;40.50;;;;;;485794;245;1189;-51
2022/09/24 11:39:38;;;;;;;;;;;21.10;40.50;;;;;;485319;245;2022;-51
2022/09/24 11:41:40;;;;;;;;;;;21.00;40.60;;;;;;485531;245;1224;-51
2022/09/24 11:43:42;;;;;;;;;;;21.10;40.60;;;;;;485710;245;1221;-51
2022/09/24 11:45:42;;;;;;;;;;;21.10;40.70;;;;;;485740;245;2122;-51
2022/09/24 11:47:44;;;;;;;;;;;21.10;40.70;;;;;;485287;245;2157;-51
2022/09/24 11:49:45;;;;;;;;;;;21.10;40.60;;;;;;485757;245;1293;-50
2022/09/24 11:51:46;;;;;;;;;;;21.10;40.70;;;;;;485303;245;1347;-50
2022/09/24 11:53:48;;;;;;;;;;;21.10;40.70;;;;;;485304;245;1233;-51
2022/09/24 11:55:50;;;;;;;;;;;21.00;40.70;;;;;;485394;245;1243;-50
2022/09/24 11:57:50;;;;;;;;;;;21.00;40.70;;;;;;485306;242;2497;-49
2022/09/24 11:59:52;;;;;;;;;;;21.10;40.90;;;;;;485533;245;1361;-51
2022/09/24 12:01:53;;;;;;;;;;;21.00;40.80;;;;;;485805;245;1276;-51
2022/09/24 12:03:55;;;;;;;;;;;21.10;40.80;;;;;;485805;245;1273;-51
2022/09/24 12:05:56;;;;;;;;;;;21.00;40.80;;;;;;485372;245;1327;-50
2022/09/24 12:07:57;;;;;;;;;;;21.10;40.90;;;;;;485808;245;2159;-50
2022/09/24 12:09:58;;;;;;;;;;;21.10;40.90;;;;;;485307;245;1268;-50